Time;durP1;ratioP1;P1;durP2;ratioP2;P2;SDS_P1;SDS_P2;PMS_P1;PMS_P2;Temp;Humidity;BMP_temperature;BMP_pressure;BME280_temperature;BME280_humidity;BME280_pressure;Samples;Min_cycle;Max_cycle;Signal;HPM_P1;HPM_P2
2021/07/15 00:01:54;;;;;;;2.70;0.50;;;17.20;99.90;;;;;;5061194;28;20391;-87
2021/07/15 00:04:21;;;;;;;3.80;0.50;;;17.10;99.90;;;;;;5064913;28;20434;-87
2021/07/15 00:06:48;;;;;;;0.73;0.50;;;17.00;99.90;;;;;;5052164;28;20549;-89
2021/07/15 00:09:20;;;;;;;1.90;0.68;;;16.90;99.90;;;;;;5079552;28;21978;-91
2021/07/15 00:11:53;;;;;;;0.57;0.40;;;16.80;99.90;;;;;;5071171;28;20408;-88
2021/07/15 00:14:23;;;;;;;1.30;0.70;;;16.80;99.90;;;;;;5056546;28;20404;-88
2021/07/15 00:16:57;;;;;;;1.38;0.50;;;16.80;99.90;;;;;;5070134;28;20406;-87
2021/07/15 00:19:37;;;;;;;3.33;0.50;;;16.80;99.90;;;;;;5065292;28;20429;-90
2021/07/15 00:22:08;;;;;;;0.30;0.30;;;16.90;99.90;;;;;;5068041;28;20453;-89
2021/07/15 00:24:37;;;;;;;0.85;0.35;;;17.00;99.90;;;;;;5071137;28;20402;-90
2021/07/15 00:27:07;;;;;;;0.75;0.40;;;17.10;99.90;;;;;;5060992;28;20404;-90
2021/07/15 00:29:38;;;;;;;4.15;0.57;;;17.30;99.90;;;;;;5079260;28;20378;-91
2021/07/15 00:32:08;;;;;;;0.35;0.20;;;17.40;99.90;;;;;;5087622;28;20441;-88
2021/07/15 00:34:50;;;;;;;1.20;0.30;;;17.50;99.90;;;;;;5070187;28;20751;-89
2021/07/15 00:37:23;;;;;;;2.67;0.40;;;17.60;99.90;;;;;;5071795;28;20515;-90
2021/07/15 00:39:50;;;;;;;3.20;0.52;;;17.70;99.90;;;;;;5051275;28;20430;-89
2021/07/15 00:42:17;;;;;;;2.38;0.30;;;17.70;99.90;;;;;;5069304;28;20459;-91
2021/07/15 00:44:45;;;;;;;1.23;0.35;;;17.60;99.90;;;;;;5067882;28;20405;-90
2021/07/15 00:47:14;;;;;;;0.93;0.40;;;17.50;99.90;;;;;;5067708;28;20499;-90
2021/07/15 00:49:43;;;;;;;0.80;0.20;;;17.40;99.90;;;;;;5054185;28;20400;-90
2021/07/15 00:52:12;;;;;;;0.75;0.30;;;17.50;99.90;;;;;;5059972;28;20561;-89
2021/07/15 00:54:41;;;;;;;2.47;0.30;;;17.50;99.90;;;;;;5079273;28;20395;-91
2021/07/15 00:57:11;;;;;;;0.70;0.40;;;17.60;99.90;;;;;;5068608;28;20398;-88
2021/07/15 00:59:40;;;;;;;0.82;0.40;;;17.70;99.90;;;;;;5055893;28;20443;-88
2021/07/15 01:02:09;;;;;;;0.80;0.50;;;17.70;99.90;;;;;;5063282;28;20394;-86
2021/07/15 01:04:37;;;;;;;0.50;0.32;;;17.90;99.90;;;;;;5072595;28;20456;-88
2021/07/15 01:07:20;;;;;;;2.90;0.50;;;17.90;99.90;;;;;;5070493;28;20479;-88
2021/07/15 01:09:47;;;;;;;2.25;0.45;;;17.90;99.90;;;;;;5088995;28;20880;-88
2021/07/15 01:12:43;;;;;;;1.20;0.40;;;18.00;99.90;;;;;;5071063;28;20382;-89
2021/07/15 01:15:24;;;;;;;1.50;0.43;;;17.80;99.90;;;;;;5091218;28;20500;-93
2021/07/15 01:18:12;;;;;;;1.58;0.50;;;17.80;99.90;;;;;;5059867;28;20397;-92
2021/07/15 01:20:54;;;;;;;1.90;0.52;;;17.80;99.90;;;;;;5058392;28;20384;-88
2021/07/15 01:23:42;;;;;;;1.08;0.40;;;17.80;99.90;;;;;;5073809;28;20374;-87
2021/07/15 01:26:41;;;;;;;1.23;0.52;;;17.80;99.90;;;;;;5062119;28;20486;-90
2021/07/15 01:29:32;;;;;;;2.03;0.47;;;17.80;99.90;;;;;;5069911;28;20417;-92
2021/07/15 01:32:04;;;;;;;1.73;0.65;;;17.90;99.90;;;;;;5069716;28;20406;-91
2021/07/15 01:34:35;;;;;;;1.10;0.50;;;17.90;99.90;;;;;;5067118;28;20471;-90
2021/07/15 01:37:02;;;;;;;1.00;0.40;;;18.00;99.90;;;;;;5067710;28;20397;-90
2021/07/15 01:39:36;;;;;;;2.50;0.50;;;18.10;99.90;;;;;;5076949;28;20435;-91
2021/07/15 01:42:09;;;;;;;1.20;0.55;;;18.10;99.90;;;;;;5071870;28;20389;-90
2021/07/15 01:44:37;;;;;;;1.40;0.40;;;18.20;99.90;;;;;;5090170;28;20421;-93
2021/07/15 01:47:04;;;;;;;2.17;0.57;;;18.30;99.90;;;;;;5085530;28;20390;-90
2021/07/15 01:49:35;;;;;;;1.48;0.68;;;18.50;99.90;;;;;;5072191;28;20410;-89
2021/07/15 01:52:02;;;;;;;0.40;0.40;;;18.70;99.90;;;;;;5077636;28;20459;-92
2021/07/15 01:54:30;;;;;;;1.90;0.50;;;18.70;99.90;;;;;;5063913;28;20468;-93
2021/07/15 01:56:59;;;;;;;0.63;0.50;;;18.80;99.90;;;;;;5075819;28;20378;-94
2021/07/15 01:59:32;;;;;;;1.80;0.70;;;18.70;99.90;;;;;;5070423;28;20872;-92
2021/07/15 02:02:01;;;;;;;1.02;0.50;;;18.60;99.90;;;;;;5072334;28;20394;-93
2021/07/15 02:04:30;;;;;;;1.30;0.55;;;18.60;99.90;;;;;;5069649;28;20431;-91
2021/07/15 02:07:01;;;;;;;1.25;0.70;;;18.60;99.90;;;;;;5057758;28;20411;-94
2021/07/15 02:09:28;;;;;;;1.83;0.43;;;18.60;99.90;;;;;;5073292;28;20451;-95
2021/07/15 02:11:56;;;;;;;2.05;0.60;;;18.60;99.90;;;;;;5078602;28;20394;-92
2021/07/15 02:14:25;;;;;;;1.30;0.65;;;18.70;99.90;;;;;;5054786;28;20545;-91
2021/07/15 02:16:55;;;;;;;1.38;0.60;;;18.80;99.90;;;;;;5070062;28;20385;-89
2021/07/15 02:19:28;;;;;;;2.03;0.70;;;18.80;99.90;;;;;;5073954;28;20439;-95
2021/07/15 02:21:56;;;;;;;4.15;0.80;;;18.70;99.90;;;;;;5075672;28;20386;-91
2021/07/15 02:24:32;;;;;;;5.30;0.60;;;18.60;99.90;;;;;;5073546;28;20425;-92
2021/07/15 02:27:03;;;;;;;1.40;0.65;;;18.60;99.90;;;;;;5071069;28;20393;-91
2021/07/15 02:29:32;;;;;;;1.52;0.80;;;18.60;99.90;;;;;;5091236;28;20464;-91
2021/07/15 02:32:07;;;;;;;2.40;0.80;;;18.60;99.90;;;;;;5074838;28;20408;-92
2021/07/15 02:34:58;;;;;;;0.80;0.60;;;18.60;99.90;;;;;;5054360;28;20398;-91
2021/07/15 02:37:42;;;;;;;1.92;0.50;;;18.80;99.90;;;;;;5051615;28;20392;-92
2021/07/15 02:40:16;;;;;;;1.35;0.77;;;18.80;99.90;;;;;;5058356;28;20393;-90
2021/07/15 02:42:44;;;;;;;1.10;0.60;;;18.80;99.90;;;;;;5077588;28;20503;-90
2021/07/15 02:45:18;;;;;;;1.48;0.90;;;18.80;99.90;;;;;;5080340;28;20441;-89
2021/07/15 02:47:49;;;;;;;2.60;0.60;;;18.90;99.90;;;;;;5076202;28;20388;-91
2021/07/15 02:50:20;;;;;;;3.92;0.82;;;18.90;99.90;;;;;;5054343;28;20402;-89
2021/07/15 02:52:50;;;;;;;1.70;0.60;;;18.90;99.90;;;;;;5065177;28;20428;-90
2021/07/15 02:55:33;;;;;;;1.70;0.60;;;19.10;99.90;;;;;;5070244;28;20822;-91
2021/07/15 02:58:13;;;;;;;1.45;0.80;;;19.00;99.90;;;;;;5061927;28;20401;-89
2021/07/15 03:00:47;;;;;;;3.08;0.68;;;19.10;99.90;;;;;;5070131;28;20492;-91
2021/07/15 03:03:41;;;;;;;0.75;0.68;;;19.10;99.90;;;;;;5063815;28;20386;-89
2021/07/15 03:06:33;;;;;;;1.05;0.65;;;19.00;99.90;;;;;;5067564;28;20411;-91
2021/07/15 03:09:06;;;;;;;0.80;0.40;;;19.00;99.90;;;;;;5064738;28;20423;-89
2021/07/15 03:11:56;;;;;;;2.43;0.60;;;19.10;99.90;;;;;;5081068;28;20413;-89
2021/07/15 03:14:26;;;;;;;2.80;0.60;;;19.20;99.90;;;;;;5068317;28;20381;-87
2021/07/15 03:16:53;;;;;;;1.20;0.70;;;19.20;99.90;;;;;;5067949;28;20396;-89
2021/07/15 03:19:41;;;;;;;2.47;0.60;;;19.20;99.90;;;;;;5073931;28;20947;-92
2021/07/15 03:22:12;;;;;;;2.03;0.60;;;19.10;99.90;;;;;;5071299;28;20398;-88
2021/07/15 03:24:52;;;;;;;1.02;0.50;;;19.10;99.90;;;;;;5061680;28;20375;-87
2021/07/15 03:27:21;;;;;;;0.68;0.30;;;19.00;99.90;;;;;;5066379;28;20427;-87
2021/07/15 03:29:49;;;;;;;1.40;0.50;;;18.90;99.90;;;;;;5073613;28;20521;-88
2021/07/15 03:32:18;;;;;;;2.00;0.43;;;18.90;99.90;;;;;;5070161;28;20476;-87
2021/07/15 03:34:56;;;;;;;3.05;0.50;;;19.00;99.90;;;;;;5055526;28;21263;-92
2021/07/15 03:37:24;;;;;;;1.63;0.70;;;19.10;99.90;;;;;;5090997;28;20481;-92
2021/07/15 03:39:53;;;;;;;2.08;0.43;;;19.20;99.90;;;;;;5056065;28;20970;-92
2021/07/15 03:42:23;;;;;;;1.30;0.30;;;19.20;99.90;;;;;;5050330;28;20418;-92
2021/07/15 03:44:52;;;;;;;2.78;0.65;;;19.20;99.90;;;;;;5069530;28;20414;-87
2021/07/15 03:47:24;;;;;;;1.23;0.50;;;19.20;99.90;;;;;;5078635;28;21176;-90
2021/07/15 03:49:51;;;;;;;1.63;0.47;;;19.00;99.90;;;;;;5056387;28;20376;-91
2021/07/15 03:52:21;;;;;;;1.60;0.60;;;19.10;99.90;;;;;;5073004;28;20389;-87
2021/07/15 03:54:50;;;;;;;3.65;0.50;;;19.10;99.90;;;;;;5069434;28;20876;-88
2021/07/15 03:57:25;;;;;;;1.00;0.50;;;19.20;99.90;;;;;;5070878;28;20378;-90
2021/07/15 04:00:01;;;;;;;0.32;0.30;;;19.00;99.90;;;;;;5068253;28;20831;-88
2021/07/15 04:02:31;;;;;;;1.70;0.38;;;18.90;99.90;;;;;;5063551;28;20454;-89
2021/07/15 04:04:59;;;;;;;2.17;0.50;;;19.00;99.90;;;;;;5073712;28;20759;-88
2021/07/15 04:07:29;;;;;;;4.50;0.60;;;19.10;99.90;;;;;;5068825;28;20417;-88
2021/07/15 04:09:58;;;;;;;1.00;0.40;;;19.20;99.90;;;;;;5067027;28;20421;-87
2021/07/15 04:12:27;;;;;;;0.98;0.50;;;19.10;99.90;;;;;;5092651;28;20406;-85
2021/07/15 04:15:06;;;;;;;1.67;0.77;;;19.10;99.90;;;;;;5057876;28;20399;-89
2021/07/15 04:17:48;;;;;;;0.88;0.40;;;19.10;99.90;;;;;;5054463;28;20462;-86
2021/07/15 04:20:17;;;;;;;1.25;0.50;;;19.10;99.90;;;;;;5089421;28;20731;-88
2021/07/15 04:22:46;;;;;;;1.75;0.40;;;19.20;99.90;;;;;;5090295;28;20398;-88
2021/07/15 04:25:17;;;;;;;2.03;0.43;;;19.20;99.90;;;;;;5070110;28;20432;-91
2021/07/15 04:27:47;;;;;;;1.80;0.50;;;19.10;99.90;;;;;;5065780;28;20390;-88
2021/07/15 04:30:15;;;;;;;1.73;0.68;;;19.10;99.90;;;;;;5073574;28;20924;-87
2021/07/15 04:32:56;;;;;;;2.25;0.52;;;19.00;99.90;;;;;;5066187;28;20439;-87
2021/07/15 04:35:27;;;;;;;1.08;0.55;;;19.00;99.90;;;;;;5066031;28;20386;-90
2021/07/15 04:37:54;;;;;;;3.55;0.63;;;18.90;99.90;;;;;;5060903;28;20394;-89
2021/07/15 04:40:24;;;;;;;2.45;0.63;;;18.90;99.90;;;;;;5061010;28;20782;-89
2021/07/15 04:42:57;;;;;;;1.20;0.50;;;19.00;99.90;;;;;;5059279;28;20396;-89
2021/07/15 04:45:25;;;;;;;1.52;0.50;;;19.00;99.90;;;;;;5062810;28;20430;-88
2021/07/15 04:47:54;;;;;;;1.37;0.50;;;18.90;99.90;;;;;;5056457;28;20479;-88
2021/07/15 04:50:26;;;;;;;3.83;0.60;;;18.80;99.90;;;;;;5051776;28;20487;-90
2021/07/15 04:53:01;;;;;;;1.40;0.60;;;18.90;99.90;;;;;;5060917;28;20531;-88
2021/07/15 04:55:29;;;;;;;2.58;0.50;;;18.90;99.90;;;;;;5060863;28;20403;-91
2021/07/15 04:57:57;;;;;;;1.07;0.60;;;18.90;99.90;;;;;;5055060;28;20396;-87
2021/07/15 05:00:26;;;;;;;4.07;0.60;;;18.80;99.90;;;;;;5060016;28;20483;-87
2021/07/15 05:03:30;;;;;;;1.20;0.50;;;18.80;99.90;;;;;;5059124;28;20498;-91
2021/07/15 05:05:59;;;;;;;1.85;0.57;;;18.90;99.90;;;;;;5063717;28;20422;-88
2021/07/15 05:08:29;;;;;;;2.20;0.50;;;18.90;99.90;;;;;;5055200;28;20463;-86
2021/07/15 05:10:57;;;;;;;1.52;0.50;;;18.70;99.90;;;;;;5054513;28;20388;-84
2021/07/15 05:13:24;;;;;;;2.53;1.00;;;18.70;99.90;;;;;;5065167;28;20509;-88
2021/07/15 05:15:52;;;;;;;2.50;0.50;;;18.60;99.90;;;;;;5069971;28;20391;-87
2021/07/15 05:18:22;;;;;;;0.75;0.55;;;18.60;99.90;;;;;;5066703;28;20888;-85
2021/07/15 05:20:50;;;;;;;1.77;0.50;;;18.70;99.90;;;;;;5065884;28;20409;-90
2021/07/15 05:23:18;;;;;;;3.63;0.68;;;18.60;99.90;;;;;;5066724;28;20465;-87
2021/07/15 05:25:46;;;;;;;2.35;0.60;;;18.50;99.90;;;;;;5071404;28;20899;-87
2021/07/15 05:28:13;;;;;;;1.30;0.60;;;18.50;99.90;;;;;;5067251;28;20470;-91
2021/07/15 05:30:40;;;;;;;1.50;0.70;;;18.50;99.90;;;;;;5072093;28;20430;-87
2021/07/15 05:33:07;;;;;;;1.88;0.57;;;18.40;99.90;;;;;;5067209;28;20394;-89
2021/07/15 05:35:34;;;;;;;1.85;0.50;;;18.50;99.90;;;;;;5058792;28;20829;-89
2021/07/15 05:38:04;;;;;;;0.80;0.45;;;18.50;99.90;;;;;;5065643;28;20477;-88
2021/07/15 05:40:32;;;;;;;1.40;0.50;;;18.40;99.90;;;;;;5068256;28;20406;-89
2021/07/15 05:43:03;;;;;;;1.25;0.55;;;18.40;99.90;;;;;;5058756;28;20386;-90
2021/07/15 05:45:31;;;;;;;1.92;0.50;;;18.40;99.90;;;;;;5071870;28;20921;-88
2021/07/15 05:47:59;;;;;;;2.78;0.60;;;18.40;99.90;;;;;;5080245;28;20887;-89
2021/07/15 05:50:27;;;;;;;1.50;0.60;;;18.30;99.90;;;;;;5068638;28;20904;-87
2021/07/15 05:52:55;;;;;;;0.57;0.50;;;18.30;99.90;;;;;;5068700;28;20398;-86
2021/07/15 05:55:22;;;;;;;1.13;0.40;;;18.20;99.90;;;;;;5074113;28;20474;-87
2021/07/15 05:57:49;;;;;;;2.08;0.50;;;18.20;99.90;;;;;;5064275;28;20395;-87
2021/07/15 06:00:18;;;;;;;1.20;0.60;;;18.00;99.90;;;;;;5076677;28;21006;-86
2021/07/15 06:02:45;;;;;;;2.20;0.50;;;18.00;99.90;;;;;;5069208;28;20474;-89
2021/07/15 06:05:15;;;;;;;2.50;0.60;;;17.90;99.90;;;;;;5069403;28;20418;-87
2021/07/15 06:07:43;;;;;;;1.05;0.60;;;17.90;99.90;;;;;;5068177;28;20408;-90
2021/07/15 06:10:11;;;;;;;1.60;0.70;;;17.80;99.90;;;;;;5077062;28;20405;-88
2021/07/15 06:12:42;;;;;;;3.33;0.52;;;17.70;99.90;;;;;;5080649;28;20388;-88
2021/07/15 06:15:14;;;;;;;1.90;0.70;;;17.70;99.90;;;;;;5065645;28;20396;-90
2021/07/15 06:17:44;;;;;;;2.13;0.60;;;17.60;99.90;;;;;;5065262;28;20405;-88
2021/07/15 06:20:13;;;;;;;1.08;0.73;;;17.50;99.90;;;;;;5066264;28;20803;-86
2021/07/15 06:22:47;;;;;;;2.47;0.68;;;17.40;99.90;;;;;;5068982;28;20469;-87
2021/07/15 06:25:16;;;;;;;1.88;0.80;;;17.30;99.90;;;;;;5056732;28;20408;-87
2021/07/15 06:27:48;;;;;;;2.00;0.70;;;17.20;99.90;;;;;;5071220;28;20868;-86
2021/07/15 06:30:19;;;;;;;2.15;0.65;;;17.20;99.90;;;;;;5080296;28;20803;-87
2021/07/15 06:32:47;;;;;;;3.75;0.70;;;17.10;99.90;;;;;;5068828;28;20412;-86
2021/07/15 06:35:17;;;;;;;1.70;0.60;;;17.00;99.90;;;;;;5070464;28;20827;-85
2021/07/15 06:37:53;;;;;;;3.55;0.93;;;17.00;99.90;;;;;;5089124;28;20407;-89
2021/07/15 06:40:23;;;;;;;2.78;0.60;;;17.00;99.90;;;;;;5086093;28;20398;-88
2021/07/15 06:42:53;;;;;;;3.20;0.85;;;16.90;99.90;;;;;;5082605;28;20471;-89
2021/07/15 06:45:24;;;;;;;2.20;0.93;;;16.80;99.90;;;;;;5082799;28;20529;-88
2021/07/15 06:47:55;;;;;;;2.08;1.02;;;16.80;99.90;;;;;;5073531;28;20464;-85
2021/07/15 06:50:32;;;;;;;2.03;1.00;;;16.70;99.90;;;;;;5083018;28;20396;-91
2021/07/15 06:53:01;;;;;;;2.00;1.00;;;16.70;99.90;;;;;;5059752;28;20386;-88
2021/07/15 06:55:29;;;;;;;2.43;0.90;;;16.60;99.90;;;;;;5062706;28;20477;-89
2021/07/15 06:57:59;;;;;;;3.13;1.33;;;16.60;99.90;;;;;;5052988;28;20440;-89
2021/07/15 07:00:33;;;;;;;3.55;1.20;;;16.50;99.90;;;;;;5058897;28;20479;-90
2021/07/15 07:03:00;;;;;;;3.72;1.40;;;16.40;99.90;;;;;;5092094;28;20479;-90
2021/07/15 07:05:30;;;;;;;6.30;1.30;;;16.30;99.90;;;;;;5071603;28;20410;-88
2021/07/15 07:08:02;;;;;;;1.60;1.20;;;16.20;99.90;;;;;;5089186;28;20392;-89
2021/07/15 07:10:43;;;;;;;3.95;1.52;;;16.10;99.90;;;;;;5083428;28;20394;-89
2021/07/15 07:13:10;;;;;;;2.70;1.27;;;16.00;99.90;;;;;;5074065;28;20495;-89
2021/07/15 07:15:40;;;;;;;4.90;1.38;;;16.00;99.90;;;;;;5074411;28;20485;-90
2021/07/15 07:18:09;;;;;;;3.58;1.50;;;15.80;99.90;;;;;;5086173;28;20408;-91
2021/07/15 07:20:36;;;;;;;3.88;1.20;;;15.80;99.90;;;;;;5067103;28;20398;-88
2021/07/15 07:23:05;;;;;;;2.33;1.13;;;15.70;99.90;;;;;;5072689;28;20388;-89
2021/07/15 07:25:32;;;;;;;2.53;1.00;;;15.70;99.90;;;;;;5072327;28;20401;-89
2021/07/15 07:28:00;;;;;;;4.20;1.20;;;15.60;99.90;;;;;;5073397;28;20884;-89
2021/07/15 07:30:29;;;;;;;3.03;1.10;;;15.60;99.90;;;;;;5073657;28;20391;-88
2021/07/15 07:32:56;;;;;;;2.60;1.10;;;15.60;99.90;;;;;;5071764;28;20382;-89
2021/07/15 07:35:24;;;;;;;1.90;0.90;;;15.50;99.90;;;;;;5074513;28;20483;-90
2021/07/15 07:37:51;;;;;;;3.00;1.25;;;15.40;99.90;;;;;;5070969;28;20437;-90
2021/07/15 07:40:19;;;;;;;2.58;1.05;;;15.30;99.90;;;;;;5070917;28;20412;-89
2021/07/15 07:42:47;;;;;;;4.28;0.98;;;15.20;99.90;;;;;;5078291;28;20410;-89
2021/07/15 07:45:16;;;;;;;2.07;1.43;;;15.20;99.90;;;;;;5093433;28;20425;-90
2021/07/15 07:47:44;;;;;;;2.60;1.05;;;15.10;99.90;;;;;;5071470;28;20932;-89
2021/07/15 07:50:13;;;;;;;2.72;1.35;;;15.00;99.90;;;;;;5070255;28;20896;-89
2021/07/15 07:52:41;;;;;;;8.88;6.65;;;14.90;99.90;;;;;;5078954;28;20376;-90
2021/07/15 07:55:09;;;;;;;30.30;26.90;;;14.90;99.90;;;;;;5074939;28;20391;-89
2021/07/15 07:57:37;;;;;;;9.48;8.18;;;14.90;99.90;;;;;;5081825;28;20437;-88
2021/07/15 08:00:15;;;;;;;4.90;4.20;;;14.90;99.90;;;;;;5088452;28;20472;-89
2021/07/15 08:02:43;;;;;;;2.50;2.30;;;14.90;99.90;;;;;;5072516;28;20427;-88
2021/07/15 08:05:14;;;;;;;6.07;2.60;;;14.90;99.90;;;;;;5093794;28;20531;-90
2021/07/15 08:07:41;;;;;;;5.55;2.60;;;14.80;99.90;;;;;;5095429;28;20384;-89
2021/07/15 08:10:11;;;;;;;5.07;2.70;;;14.80;99.90;;;;;;5085143;28;20394;-89
2021/07/15 08:12:41;;;;;;;4.88;2.67;;;14.70;99.90;;;;;;5072206;28;20910;-90
2021/07/15 08:15:10;;;;;;;5.75;2.85;;;14.70;99.90;;;;;;5085956;28;20418;-90
2021/07/15 08:17:38;;;;;;;3.83;3.20;;;14.60;99.90;;;;;;5058690;28;20443;-90
2021/07/15 08:20:12;;;;;;;5.88;3.40;;;14.50;99.90;;;;;;5069407;28;20448;-89
2021/07/15 08:22:40;;;;;;;4.40;2.80;;;14.50;99.90;;;;;;5052115;28;20394;-89
2021/07/15 08:25:09;;;;;;;4.47;2.65;;;14.50;99.90;;;;;;5070363;28;20805;-88
2021/07/15 08:27:36;;;;;;;3.72;2.35;;;14.50;99.90;;;;;;5070434;28;20524;-91
2021/07/15 08:30:06;;;;;;;5.68;2.40;;;14.50;99.90;;;;;;5071116;28;20742;-89
2021/07/15 08:32:34;;;;;;;5.32;2.10;;;14.40;99.90;;;;;;5069499;28;20919;-89
2021/07/15 08:35:04;;;;;;;6.30;2.63;;;14.40;99.90;;;;;;5069489;28;20398;-89
2021/07/15 08:37:31;;;;;;;3.05;2.40;;;14.40;99.90;;;;;;5054518;28;20374;-90
2021/07/15 08:40:00;;;;;;;3.83;2.63;;;14.40;99.90;;;;;;5082505;28;20388;-90
2021/07/15 08:42:27;;;;;;;4.40;2.60;;;14.40;99.90;;;;;;5075005;28;20386;-90
2021/07/15 08:44:55;;;;;;;4.72;2.65;;;14.40;99.90;;;;;;5079533;28;20399;-90
2021/07/15 08:47:22;;;;;;;4.50;2.50;;;14.30;99.90;;;;;;5095476;28;20364;-87
2021/07/15 08:49:49;;;;;;;4.05;2.70;;;14.30;99.90;;;;;;5077191;28;20388;-89
2021/07/15 08:52:17;;;;;;;3.35;2.38;;;14.30;99.90;;;;;;5068518;28;20397;-89
2021/07/15 08:54:54;;;;;;;4.47;2.30;;;14.20;99.90;;;;;;5082968;28;20735;-88
2021/07/15 08:57:22;;;;;;;8.50;4.77;;;14.20;99.90;;;;;;5064561;28;20397;-89
2021/07/15 08:59:49;;;;;;;5.43;4.80;;;14.20;99.90;;;;;;5076085;28;20466;-90
2021/07/15 09:02:19;;;;;;;6.32;4.60;;;14.30;99.90;;;;;;5071980;28;20397;-90
2021/07/15 09:04:47;;;;;;;5.28;4.00;;;14.30;99.90;;;;;;5061257;28;20387;-89
2021/07/15 09:07:15;;;;;;;5.10;4.28;;;14.30;99.90;;;;;;5063943;28;20467;-90
2021/07/15 09:09:48;;;;;;;7.93;4.20;;;14.20;99.90;;;;;;5064226;28;20390;-90
2021/07/15 09:12:18;;;;;;;5.80;4.20;;;14.20;99.90;;;;;;5071531;28;20401;-88
2021/07/15 09:14:52;;;;;;;6.30;4.40;;;14.20;99.90;;;;;;5060797;28;20738;-89
2021/07/15 09:17:35;;;;;;;5.83;4.70;;;14.20;99.90;;;;;;5068949;28;20408;-90
2021/07/15 09:20:10;;;;;;;5.38;4.40;;;14.20;99.90;;;;;;5064646;28;20414;-87
2021/07/15 09:23:00;;;;;;;8.07;4.95;;;14.30;99.90;;;;;;5058381;28;20387;-86
2021/07/15 09:25:41;;;;;;;6.20;4.18;;;14.30;99.90;;;;;;5066216;28;20919;-86
2021/07/15 09:28:12;;;;;;;6.22;4.25;;;14.20;99.90;;;;;;5068459;28;20399;-87
2021/07/15 09:30:40;;;;;;;6.15;3.95;;;14.20;99.90;;;;;;5072084;28;20437;-86
2021/07/15 09:33:12;;;;;;;4.30;3.45;;;14.20;99.90;;;;;;5065412;28;20405;-85
2021/07/15 09:35:46;;;;;;;5.93;3.50;;;14.20;99.90;;;;;;5064464;28;20422;-86
2021/07/15 09:38:26;;;;;;;5.25;3.53;;;14.10;99.90;;;;;;5072943;28;20481;-86
2021/07/15 09:41:01;;;;;;;5.18;4.13;;;14.10;99.90;;;;;;5070606;28;20790;-85
2021/07/15 09:43:30;;;;;;;5.80;3.90;;;14.00;99.90;;;;;;5072103;28;20386;-87
2021/07/15 09:46:19;;;;;;;6.25;3.30;;;14.00;99.90;;;;;;5072604;28;20753;-86
2021/07/15 09:49:04;;;;;;;3.95;2.80;;;13.90;99.90;;;;;;5077130;28;20388;-86
2021/07/15 09:51:59;;;;;;;4.18;3.13;;;13.80;99.90;;;;;;5085385;28;20465;-87
2021/07/15 09:54:27;;;;;;;6.03;3.28;;;13.80;99.90;;;;;;5050476;28;20750;-86
2021/07/15 09:56:57;;;;;;;4.85;3.28;;;13.80;99.90;;;;;;5068856;28;20416;-86
2021/07/15 09:59:26;;;;;;;3.70;2.90;;;13.70;99.90;;;;;;5073860;28;20390;-85
2021/07/15 10:01:55;;;;;;;8.15;3.63;;;13.70;99.90;;;;;;5052886;28;20390;-88
2021/07/15 10:04:26;;;;;;;5.72;3.40;;;13.60;99.90;;;;;;5073011;28;20391;-88
2021/07/15 10:06:54;;;;;;;7.43;2.83;;;13.60;99.90;;;;;;5064393;28;20415;-86
2021/07/15 10:09:29;;;;;;;4.15;2.53;;;13.50;99.90;;;;;;5040829;28;20399;-86
2021/07/15 10:11:58;;;;;;;5.50;2.88;;;13.60;99.90;;;;;;5057107;28;20433;-88
2021/07/15 10:14:35;;;;;;;4.45;2.42;;;13.60;99.90;;;;;;5063314;28;20392;-86
2021/07/15 10:17:05;;;;;;;2.90;2.50;;;13.70;99.90;;;;;;5053561;28;20410;-88
2021/07/15 10:19:33;;;;;;;4.75;2.45;;;13.70;99.90;;;;;;5069374;28;20456;-89
2021/07/15 10:22:10;;;;;;;3.50;2.33;;;13.80;99.90;;;;;;5064885;28;20413;-88
2021/07/15 10:24:38;;;;;;;9.27;2.40;;;13.80;99.90;;;;;;5066342;28;20412;-88
2021/07/15 10:27:10;;;;;;;3.20;2.38;;;13.80;99.90;;;;;;5035640;28;20488;-87
2021/07/15 10:29:41;;;;;;;5.47;2.03;;;13.70;99.90;;;;;;5052740;28;20493;-88
2021/07/15 10:32:19;;;;;;;3.47;2.17;;;13.70;99.90;;;;;;5057008;28;20485;-87
2021/07/15 10:34:51;;;;;;;3.78;1.92;;;13.70;99.90;;;;;;5072603;28;20425;-86
2021/07/15 10:37:20;;;;;;;4.57;2.20;;;13.70;99.90;;;;;;5053827;28;20399;-86
2021/07/15 10:39:50;;;;;;;4.28;2.50;;;13.80;99.90;;;;;;5064094;28;20398;-90
2021/07/15 10:42:17;;;;;;;2.88;2.28;;;13.90;99.90;;;;;;5033348;28;20651;-87
2021/07/15 10:44:48;;;;;;;3.83;3.00;;;13.80;99.90;;;;;;5050645;28;20485;-88
2021/07/15 10:47:16;;;;;;;5.25;2.95;;;13.80;99.90;;;;;;5047438;28;20402;-87
2021/07/15 10:49:44;;;;;;;3.17;2.28;;;13.80;99.90;;;;;;5052323;28;20393;-85
2021/07/15 10:52:13;;;;;;;3.63;2.42;;;13.80;99.90;;;;;;5024548;28;20406;-89
2021/07/15 10:54:46;;;;;;;5.05;1.60;;;13.90;99.90;;;;;;5072726;28;20432;-87
2021/07/15 10:57:14;;;;;;;4.85;1.98;;;13.90;99.90;;;;;;5049105;28;20924;-88
2021/07/15 10:59:41;;;;;;;3.17;1.55;;;13.90;99.90;;;;;;5067795;28;20463;-87
2021/07/15 11:02:28;;;;;;;2.58;1.50;;;13.90;99.90;;;;;;5052864;28;20868;-88
2021/07/15 11:05:26;;;;;;;2.50;1.37;;;13.80;99.90;;;;;;5061121;28;20403;-87
2021/07/15 11:07:53;;;;;;;2.13;1.48;;;13.70;99.90;;;;;;5067112;28;20403;-89
2021/07/15 11:10:35;;;;;;;1.65;1.33;;;13.70;99.90;;;;;;5040281;28;20508;-88
2021/07/15 11:13:06;;;;;;;2.97;1.53;;;13.70;99.90;;;;;;5052935;28;20427;-86
2021/07/15 11:15:57;;;;;;;5.80;1.48;;;13.60;99.90;;;;;;5053585;28;20386;-88
2021/07/15 11:18:41;;;;;;;4.23;1.63;;;13.60;99.90;;;;;;5050113;28;20456;-89
2021/07/15 11:21:32;;;;;;;2.92;1.65;;;13.50;99.90;;;;;;5061715;28;20451;-89
2021/07/15 11:24:06;;;;;;;1.58;1.48;;;13.50;99.90;;;;;;5071412;28;20394;-87
2021/07/15 11:26:40;;;;;;;2.88;1.58;;;13.40;99.90;;;;;;5063893;28;20417;-88
2021/07/15 11:29:16;;;;;;;4.07;1.83;;;13.40;99.90;;;;;;5067149;28;20439;-85
2021/07/15 11:31:46;;;;;;;4.07;1.90;;;13.30;99.90;;;;;;5057632;28;20404;-87
2021/07/15 11:34:36;;;;;;;3.83;1.60;;;13.30;99.90;;;;;;5046669;28;20466;-86
2021/07/15 11:37:32;;;;;;;1.77;1.48;;;13.20;99.90;;;;;;5062024;28;20390;-86
2021/07/15 11:40:02;;;;;;;3.50;1.63;;;13.10;99.90;;;;;;5072188;28;20380;-86
2021/07/15 11:42:35;;;;;;;2.22;1.52;;;13.10;99.90;;;;;;5042797;28;20888;-87
2021/07/15 11:45:13;;;;;;;1.88;1.30;;;13.00;99.90;;;;;;5054777;28;20485;-87
2021/07/15 11:47:55;;;;;;;3.45;1.45;;;12.90;99.90;;;;;;5070167;28;20397;-87
2021/07/15 11:50:33;;;;;;;2.88;1.67;;;12.80;99.90;;;;;;5070056;28;20370;-86
2021/07/15 11:53:20;;;;;;;1.80;1.67;;;12.80;99.90;;;;;;5068138;28;20394;-87
2021/07/15 11:56:16;;;;;;;3.85;1.60;;;12.70;99.90;;;;;;5068180;28;20386;-87
2021/07/15 11:59:04;;;;;;;2.40;1.40;;;12.60;99.90;;;;;;5069104;28;20402;-87
2021/07/15 12:01:38;;;;;;;2.60;1.48;;;12.60;99.90;;;;;;5068367;28;20394;-88
2021/07/15 12:04:10;;;;;;;1.85;1.60;;;12.50;99.90;;;;;;5068865;28;20421;-87
2021/07/15 12:06:44;;;;;;;2.55;2.03;;;12.40;99.90;;;;;;5070300;28;20907;-87
2021/07/15 12:09:17;;;;;;;16.58;12.85;;;12.30;99.90;;;;;;5068513;28;20454;-87
2021/07/15 12:11:45;;;;;;;58.05;41.63;;;12.20;99.90;;;;;;5069304;28;20398;-87
2021/07/15 12:14:34;;;;;;;38.67;29.52;;;12.10;99.90;;;;;;5069109;28;20402;-87
2021/07/15 12:17:19;;;;;;;22.77;14.80;;;12.10;99.90;;;;;;5069926;28;20382;-86
2021/07/15 12:20:00;;;;;;;16.90;12.60;;;12.10;99.90;;;;;;5053571;28;20406;-87
2021/07/15 12:22:41;;;;;;;21.70;16.58;;;12.00;99.90;;;;;;5069000;28;20389;-86
2021/07/15 12:25:32;;;;;;;18.20;13.48;;;12.00;99.90;;;;;;5069423;28;20403;-86
2021/07/15 12:28:05;;;;;;;8.37;5.40;;;11.90;99.90;;;;;;5068682;28;20397;-86
2021/07/15 12:30:50;;;;;;;3.70;2.85;;;11.90;99.90;;;;;;5054881;28;20370;-86
2021/07/15 12:33:20;;;;;;;2.67;2.38;;;12.00;99.90;;;;;;5071174;28;20416;-86
2021/07/15 12:35:49;;;;;;;4.03;1.70;;;12.00;99.90;;;;;;5059953;28;20730;-86
2021/07/15 12:38:27;;;;;;;2.00;1.73;;;11.90;99.90;;;;;;5067072;28;20394;-86
2021/07/15 12:41:25;;;;;;;2.42;2.00;;;11.90;99.90;;;;;;5098761;28;20390;-85
2021/07/15 12:44:11;;;;;;;2.42;1.70;;;11.80;99.90;;;;;;5050717;28;20384;-86
2021/07/15 12:46:42;;;;;;;2.83;2.00;;;11.80;99.90;;;;;;5060197;28;20442;-87
2021/07/15 12:49:26;;;;;;;1.73;1.60;;;11.80;99.90;;;;;;5063084;28;20468;-86
2021/07/15 12:51:59;;;;;;;2.10;1.90;;;11.70;99.90;;;;;;5054759;28;20402;-86
2021/07/15 12:54:35;;;;;;;1.92;1.52;;;11.70;99.90;;;;;;5059337;28;20394;-87
2021/07/15 12:57:11;;;;;;;2.58;1.90;;;11.60;99.90;;;;;;5053625;28;20386;-88
2021/07/15 12:59:43;;;;;;;1.92;1.30;;;11.60;99.90;;;;;;5065663;28;20947;-88
2021/07/15 13:02:13;;;;;;;3.73;1.60;;;11.50;99.90;;;;;;5063379;28;20392;-86
2021/07/15 13:04:40;;;;;;;3.55;1.48;;;11.40;99.90;;;;;;5063635;28;20402;-86
2021/07/15 13:07:10;;;;;;;3.03;1.50;;;11.50;99.90;;;;;;5066541;28;20400;-86
2021/07/15 13:15:09;;;;;;;1.60;1.40;;;11.40;99.90;;;;;;5071089;28;20971;-87
2021/07/15 13:17:42;;;;;;;2.38;1.50;;;11.40;99.90;;;;;;5084029;28;20481;-86
2021/07/15 13:20:15;;;;;;;4.47;1.40;;;11.30;99.90;;;;;;5060547;28;20401;-86